sensor_id;sensor_type;location;lat;lon;timestamp;pressure;altitude;pressure_sealevel;temperature;humidity
75895;BME280;64573;50.328;15.014;2022-11-20T00:00:52;98538.88;;;-9.56;96.52
75895;BME280;64573;50.328;15.014;2022-11-20T00:03:17;98540.09;;;-9.45;95.98
75895;BME280;64573;50.328;15.014;2022-11-20T00:05:43;98538.44;;;-9.46;96.67
75895;BME280;64573;50.328;15.014;2022-11-20T00:08:09;98542.63;;;-9.62;95.85
75895;BME280;64573;50.328;15.014;2022-11-20T00:10:39;98538.47;;;-9.86;96.21
75895;BME280;64573;50.328;15.014;2022-11-20T00:13:05;98547.66;;;-10.00;95.16
75895;BME280;64573;50.328;15.014;2022-11-20T00:15:30;98553.72;;;-9.99;95.19
75895;BME280;64573;50.328;15.014;2022-11-20T00:17:56;98558.03;;;-10.00;95.59
75895;BME280;64573;50.328;15.014;2022-11-20T00:20:21;98553.59;;;-9.96;96.09
75895;BME280;64573;50.328;15.014;2022-11-20T00:22:47;98553.38;;;-10.12;95.33
75895;BME280;64573;50.328;15.014;2022-11-20T00:25:12;98554.94;;;-10.08;95.22
75895;BME280;64573;50.328;15.014;2022-11-20T00:27:37;98560.97;;;-10.07;96.21
75895;BME280;64573;50.328;15.014;2022-11-20T00:30:04;98556.38;;;-10.21;96.20
75895;BME280;64573;50.328;15.014;2022-11-20T00:32:29;98557.31;;;-10.44;95.46
75895;BME280;64573;50.328;15.014;2022-11-20T00:34:55;98565.63;;;-10.36;94.17
75895;BME280;64573;50.328;15.014;2022-11-20T00:37:20;98560.81;;;-10.45;94.98
75895;BME280;64573;50.328;15.014;2022-11-20T00:39:45;98558.72;;;-10.35;95.44
75895;BME280;64573;50.328;15.014;2022-11-20T00:42:11;98555.31;;;-10.17;95.11
75895;BME280;64573;50.328;15.014;2022-11-20T00:44:36;98562.91;;;-10.12;95.03
75895;BME280;64573;50.328;15.014;2022-11-20T00:47:01;98552.56;;;-9.92;95.47
75895;BME280;64573;50.328;15.014;2022-11-20T00:49:27;98552.84;;;-9.79;94.72
75895;BME280;64573;50.328;15.014;2022-11-20T00:51:52;98561.69;;;-9.83;94.76
75895;BME280;64573;50.328;15.014;2022-11-20T00:54:18;98568.06;;;-9.90;96.02
75895;BME280;64573;50.328;15.014;2022-11-20T00:56:43;98562.97;;;-9.93;94.67
75895;BME280;64573;50.328;15.014;2022-11-20T00:59:09;98556.50;;;-9.83;95.40
75895;BME280;64573;50.328;15.014;2022-11-20T01:01:35;98564.56;;;-9.69;95.48
75895;BME280;64573;50.328;15.014;2022-11-20T01:04:01;98567.69;;;-9.42;96.27
75895;BME280;64573;50.328;15.014;2022-11-20T01:06:34;98563.13;;;-9.76;95.91
75895;BME280;64573;50.328;15.014;2022-11-20T01:09:06;98564.03;;;-9.77;95.42
75895;BME280;64573;50.328;15.014;2022-11-20T01:11:34;98562.72;;;-9.67;95.42
75895;BME280;64573;50.328;15.014;2022-11-20T01:14:02;98575.94;;;-9.13;95.84
75895;BME280;64573;50.328;15.014;2022-11-20T01:16:33;98574.41;;;-9.18;95.97
75895;BME280;64573;50.328;15.014;2022-11-20T01:19:00;98572.78;;;-9.01;96.28
75895;BME280;64573;50.328;15.014;2022-11-20T01:21:31;98581.56;;;-8.85;96.64
75895;BME280;64573;50.328;15.014;2022-11-20T01:23:57;98586.28;;;-8.74;96.42
75895;BME280;64573;50.328;15.014;2022-11-20T01:26:28;98576.72;;;-9.11;96.50
75895;BME280;64573;50.328;15.014;2022-11-20T01:28:55;98576.31;;;-9.41;95.98
75895;BME280;64573;50.328;15.014;2022-11-20T01:31:30;98571.41;;;-9.48;95.73
75895;BME280;64573;50.328;15.014;2022-11-20T01:33:58;98565.56;;;-9.53;96.16
75895;BME280;64573;50.328;15.014;2022-11-20T01:36:26;98564.00;;;-9.57;95.83
75895;BME280;64573;50.328;15.014;2022-11-20T01:38:57;98559.03;;;-9.61;95.18
75895;BME280;64573;50.328;15.014;2022-11-20T01:41:24;98551.69;;;-9.92;95.66
75895;BME280;64573;50.328;15.014;2022-11-20T01:44:11;98550.25;;;-10.00;95.42
75895;BME280;64573;50.328;15.014;2022-11-20T01:46:40;98544.56;;;-10.08;95.72
75895;BME280;64573;50.328;15.014;2022-11-20T01:51:45;98542.34;;;-10.17;95.98
75895;BME280;64573;50.328;15.014;2022-11-20T01:54:18;98539.94;;;-10.21;95.60
75895;BME280;64573;50.328;15.014;2022-11-20T01:56:45;98545.44;;;-10.27;95.94
75895;BME280;64573;50.328;15.014;2022-11-20T01:59:13;98535.00;;;-10.26;95.54
75895;BME280;64573;50.328;15.014;2022-11-20T02:01:40;98539.19;;;-10.23;95.20
75895;BME280;64573;50.328;15.014;2022-11-20T02:04:07;98531.31;;;-10.22;95.24
75895;BME280;64573;50.328;15.014;2022-11-20T02:06:47;98531.22;;;-10.19;95.89
75895;BME280;64573;50.328;15.014;2022-11-20T02:09:14;98541.94;;;-10.26;95.98
75895;BME280;64573;50.328;15.014;2022-11-20T02:11:39;98539.19;;;-10.23;95.14
75895;BME280;64573;50.328;15.014;2022-11-20T02:14:05;98542.03;;;-10.30;95.87
75895;BME280;64573;50.328;15.014;2022-11-20T02:16:34;98536.75;;;-10.26;96.25
75895;BME280;64573;50.328;15.014;2022-11-20T02:19:02;98534.94;;;-10.24;95.81
75895;BME280;64573;50.328;15.014;2022-11-20T02:21:49;98529.47;;;-10.18;95.32
75895;BME280;64573;50.328;15.014;2022-11-20T02:24:19;98530.97;;;-10.13;95.54
75895;BME280;64573;50.328;15.014;2022-11-20T02:26:52;98533.84;;;-9.80;94.75
75895;BME280;64573;50.328;15.014;2022-11-20T02:29:39;98529.16;;;-9.51;95.40
75895;BME280;64573;50.328;15.014;2022-11-20T02:32:06;98525.41;;;-9.64;95.92
75895;BME280;64573;50.328;15.014;2022-11-20T02:34:31;98522.34;;;-9.54;96.25
75895;BME280;64573;50.328;15.014;2022-11-20T02:36:58;98520.00;;;-9.39;95.59
75895;BME280;64573;50.328;15.014;2022-11-20T02:39:25;98512.66;;;-9.50;96.15
75895;BME280;64573;50.328;15.014;2022-11-20T02:41:52;98518.50;;;-9.45;95.62
75895;BME280;64573;50.328;15.014;2022-11-20T02:44:19;98514.34;;;-9.49;95.35
75895;BME280;64573;50.328;15.014;2022-11-20T02:46:45;98512.31;;;-9.61;95.69
75895;BME280;64573;50.328;15.014;2022-11-20T02:49:10;98518.53;;;-9.65;95.32
75895;BME280;64573;50.328;15.014;2022-11-20T02:51:35;98516.84;;;-9.66;95.01
75895;BME280;64573;50.328;15.014;2022-11-20T02:54:01;98506.84;;;-9.55;95.23
75895;BME280;64573;50.328;15.014;2022-11-20T02:56:26;98513.13;;;-9.40;95.87
75895;BME280;64573;50.328;15.014;2022-11-20T02:58:52;98517.16;;;-9.35;95.69
75895;BME280;64573;50.328;15.014;2022-11-20T03:01:17;98515.94;;;-9.26;95.60
75895;BME280;64573;50.328;15.014;2022-11-20T03:03:43;98516.09;;;-9.50;96.00
75895;BME280;64573;50.328;15.014;2022-11-20T03:06:08;98513.69;;;-9.34;95.32
75895;BME280;64573;50.328;15.014;2022-11-20T03:08:34;98525.38;;;-9.06;96.18
75895;BME280;64573;50.328;15.014;2022-11-20T03:11:04;98518.59;;;-9.09;96.63
75895;BME280;64573;50.328;15.014;2022-11-20T03:13:30;98521.59;;;-8.99;96.81
75895;BME280;64573;50.328;15.014;2022-11-20T03:15:55;98518.03;;;-8.97;96.40
75895;BME280;64573;50.328;15.014;2022-11-20T03:18:20;98524.81;;;-8.94;96.44
75895;BME280;64573;50.328;15.014;2022-11-20T03:20:46;98520.34;;;-8.91;96.36
75895;BME280;64573;50.328;15.014;2022-11-20T03:23:11;98521.19;;;-8.90;96.48
75895;BME280;64573;50.328;15.014;2022-11-20T03:25:37;98519.56;;;-8.93;96.08
75895;BME280;64573;50.328;15.014;2022-11-20T03:28:02;98534.22;;;-8.92;95.41
75895;BME280;64573;50.328;15.014;2022-11-20T03:30:27;98525.38;;;-8.87;95.59
75895;BME280;64573;50.328;15.014;2022-11-20T03:32:53;98530.97;;;-8.78;95.69
75895;BME280;64573;50.328;15.014;2022-11-20T03:35:19;98528.38;;;-8.59;95.83
75895;BME280;64573;50.328;15.014;2022-11-20T03:37:44;98523.19;;;-8.42;95.78
75895;BME280;64573;50.328;15.014;2022-11-20T03:40:11;98525.31;;;-8.32;95.93
75895;BME280;64573;50.328;15.014;2022-11-20T03:42:36;98532.66;;;-8.23;96.08
75895;BME280;64573;50.328;15.014;2022-11-20T03:45:11;98537.63;;;-8.19;95.77
75895;BME280;64573;50.328;15.014;2022-11-20T03:47:37;98534.72;;;-8.13;95.90
75895;BME280;64573;50.328;15.014;2022-11-20T03:50:03;98532.44;;;-8.01;96.16
75895;BME280;64573;50.328;15.014;2022-11-20T03:52:28;98526.06;;;-7.79;96.05
75895;BME280;64573;50.328;15.014;2022-11-20T03:54:54;98523.84;;;-7.69;96.32
75895;BME280;64573;50.328;15.014;2022-11-20T03:57:19;98513.84;;;-7.61;96.33
75895;BME280;64573;50.328;15.014;2022-11-20T03:59:44;98513.13;;;-7.47;95.38
75895;BME280;64573;50.328;15.014;2022-11-20T04:02:10;98507.91;;;-7.30;94.88
75895;BME280;64573;50.328;15.014;2022-11-20T04:04:35;98511.13;;;-7.09;94.99
75895;BME280;64573;50.328;15.014;2022-11-20T04:07:00;98510.72;;;-7.01;95.64
75895;BME280;64573;50.328;15.014;2022-11-20T04:09:26;98508.66;;;-6.96;94.47
75895;BME280;64573;50.328;15.014;2022-11-20T04:11:51;98508.09;;;-7.01;95.32
75895;BME280;64573;50.328;15.014;2022-11-20T04:14:17;98518.53;;;-7.01;95.17
75895;BME280;64573;50.328;15.014;2022-11-20T04:16:42;98519.28;;;-6.99;95.36
75895;BME280;64573;50.328;15.014;2022-11-20T04:19:13;98518.00;;;-7.08;95.92
75895;BME280;64573;50.328;15.014;2022-11-20T04:21:39;98522.22;;;-7.05;95.43
75895;BME280;64573;50.328;15.014;2022-11-20T04:24:06;98522.97;;;-7.03;96.18
75895;BME280;64573;50.328;15.014;2022-11-20T04:26:31;98521.88;;;-6.99;95.29
75895;BME280;64573;50.328;15.014;2022-11-20T04:28:58;98521.78;;;-6.98;95.99
75895;BME280;64573;50.328;15.014;2022-11-20T04:31:27;98517.00;;;-6.89;95.12
75895;BME280;64573;50.328;15.014;2022-11-20T04:33:53;98507.50;;;-6.90;96.30
75895;BME280;64573;50.328;15.014;2022-11-20T04:36:26;98517.00;;;-6.89;95.26
75895;BME280;64573;50.328;15.014;2022-11-20T04:38:59;98505.06;;;-6.93;96.35
75895;BME280;64573;50.328;15.014;2022-11-20T04:41:27;98509.13;;;-6.88;95.41
75895;BME280;64573;50.328;15.014;2022-11-20T04:43:55;98513.03;;;-6.81;95.64
75895;BME280;64573;50.328;15.014;2022-11-20T04:46:27;98504.13;;;-6.77;96.09
75895;BME280;64573;50.328;15.014;2022-11-20T04:48:53;98508.19;;;-6.71;95.52
75895;BME280;64573;50.328;15.014;2022-11-20T04:51:19;98504.63;;;-6.70;95.58
75895;BME280;64573;50.328;15.014;2022-11-20T04:53:44;98512.97;;;-6.63;94.85
75895;BME280;64573;50.328;15.014;2022-11-20T04:56:11;98515.34;;;-6.59;95.88
75895;BME280;64573;50.328;15.014;2022-11-20T04:58:37;98510.84;;;-6.57;96.02
75895;BME280;64573;50.328;15.014;2022-11-20T05:01:09;98504.63;;;-6.54;95.08
75895;BME280;64573;50.328;15.014;2022-11-20T05:03:35;98507.41;;;-6.57;96.20
75895;BME280;64573;50.328;15.014;2022-11-20T05:06:01;98504.72;;;-6.56;95.57
75895;BME280;64573;50.328;15.014;2022-11-20T05:08:27;98508.25;;;-6.57;95.41
75895;BME280;64573;50.328;15.014;2022-11-20T05:10:53;98507.41;;;-6.57;96.24
75895;BME280;64573;50.328;15.014;2022-11-20T05:13:18;98503.88;;;-6.56;96.61
75895;BME280;64573;50.328;15.014;2022-11-20T05:15:43;98507.91;;;-6.51;96.06
75895;BME280;64573;50.328;15.014;2022-11-20T05:18:09;98500.66;;;-6.46;95.89
75895;BME280;64573;50.328;15.014;2022-11-20T05:20:34;98502.31;;;-6.45;96.19
75895;BME280;64573;50.328;15.014;2022-11-20T05:23:01;98501.47;;;-6.45;96.55
75895;BME280;64573;50.328;15.014;2022-11-20T05:25:27;98491.97;;;-6.46;96.06
75895;BME280;64573;50.328;15.014;2022-11-20T05:27:53;98489.56;;;-6.49;95.85
75895;BME280;64573;50.328;15.014;2022-11-20T05:30:18;98488.63;;;-6.48;96.92
75895;BME280;64573;50.328;15.014;2022-11-20T05:32:44;98482.66;;;-6.50;95.85
75895;BME280;64573;50.328;15.014;2022-11-20T05:35:09;98480.91;;;-6.50;96.93
75895;BME280;64573;50.328;15.014;2022-11-20T05:37:34;98480.16;;;-6.52;95.49
75895;BME280;64573;50.328;15.014;2022-11-20T05:40:00;98479.28;;;-6.52;95.52
75895;BME280;64573;50.328;15.014;2022-11-20T05:42:25;98481.06;;;-6.53;96.40
75895;BME280;64573;50.328;15.014;2022-11-20T05:44:57;98479.47;;;-6.55;96.82
75895;BME280;64573;50.328;15.014;2022-11-20T05:47:23;98491.66;;;-6.56;96.55
75895;BME280;64573;50.328;15.014;2022-11-20T05:49:49;98483.25;;;-6.61;95.54
75895;BME280;64573;50.328;15.014;2022-11-20T05:52:14;98479.06;;;-6.63;95.49
75895;BME280;64573;50.328;15.014;2022-11-20T05:54:39;98471.59;;;-6.70;96.52
75895;BME280;64573;50.328;15.014;2022-11-20T05:57:05;98487.41;;;-6.73;95.76
75895;BME280;64573;50.328;15.014;2022-11-20T05:59:30;98484.88;;;-6.74;96.69
75895;BME280;64573;50.328;15.014;2022-11-20T06:01:56;98485.03;;;-6.77;95.45
75895;BME280;64573;50.328;15.014;2022-11-20T06:04:21;98485.13;;;-6.79;96.37
75895;BME280;64573;50.328;15.014;2022-11-20T06:06:46;98485.13;;;-6.79;96.30
75895;BME280;64573;50.328;15.014;2022-11-20T06:09:12;98493.81;;;-6.78;95.58
75895;BME280;64573;50.328;15.014;2022-11-20T06:11:37;98491.00;;;-6.75;96.92
75895;BME280;64573;50.328;15.014;2022-11-20T06:14:03;98478.66;;;-6.72;96.85
75895;BME280;64573;50.328;15.014;2022-11-20T06:16:28;98481.06;;;-6.69;96.26
75895;BME280;64573;50.328;15.014;2022-11-20T06:18:54;98476.59;;;-6.67;96.67
75895;BME280;64573;50.328;15.014;2022-11-20T06:21:21;98476.69;;;-6.68;95.65
75895;BME280;64573;50.328;15.014;2022-11-20T06:23:48;98479.31;;;-6.68;95.68
75895;BME280;64573;50.328;15.014;2022-11-20T06:26:19;98482.00;;;-6.70;96.52
75895;BME280;64573;50.328;15.014;2022-11-20T06:28:45;98483.69;;;-6.69;96.13
75895;BME280;64573;50.328;15.014;2022-11-20T06:31:13;98482.59;;;-6.64;96.49
75895;BME280;64573;50.328;15.014;2022-11-20T06:33:39;98475.28;;;-6.58;95.70
75895;BME280;64573;50.328;15.014;2022-11-20T06:36:05;98472.47;;;-6.55;95.78
75895;BME280;64573;50.328;15.014;2022-11-20T06:38:31;98470.28;;;-6.47;95.95
75895;BME280;64573;50.328;15.014;2022-11-20T06:40:56;98462.00;;;-6.39;96.11
75895;BME280;64573;50.328;15.014;2022-11-20T06:43:22;98462.94;;;-6.40;95.88
75895;BME280;64573;50.328;15.014;2022-11-20T06:45:52;98467.06;;;-6.36;95.59
75895;BME280;64573;50.328;15.014;2022-11-20T06:48:18;98466.13;;;-6.35;95.62
75895;BME280;64573;50.328;15.014;2022-11-20T06:50:43;98466.38;;;-6.40;95.34
75895;BME280;64573;50.328;15.014;2022-11-20T06:53:08;98459.59;;;-6.42;95.35
75895;BME280;64573;50.328;15.014;2022-11-20T06:55:34;98461.44;;;-6.44;95.25
75895;BME280;64573;50.328;15.014;2022-11-20T06:57:59;98476.91;;;-6.41;95.85
75895;BME280;64573;50.328;15.014;2022-11-20T07:00:24;98474.78;;;-6.34;95.08
75895;BME280;64573;50.328;15.014;2022-11-20T07:02:50;98475.19;;;-6.26;95.99
75895;BME280;64573;50.328;15.014;2022-11-20T07:05:16;98477.34;;;-6.19;96.14
75895;BME280;64573;50.328;15.014;2022-11-20T07:07:42;98481.09;;;-6.08;95.61
75895;BME280;64573;50.328;15.014;2022-11-20T07:10:07;98476.19;;;-5.99;95.46
75895;BME280;64573;50.328;15.014;2022-11-20T07:12:33;98474.78;;;-5.90;95.82
75895;BME280;64573;50.328;15.014;2022-11-20T07:14:58;98477.19;;;-5.87;95.44
75895;BME280;64573;50.328;15.014;2022-11-20T07:17:23;98474.06;;;-5.78;94.43
75895;BME280;64573;50.328;15.014;2022-11-20T07:19:49;98476.19;;;-5.70;95.57
75895;BME280;64573;50.328;15.014;2022-11-20T07:22:14;98477.50;;;-5.63;93.89
75895;BME280;64573;50.328;15.014;2022-11-20T07:24:39;98483.22;;;-5.57;94.47
75895;BME280;64573;50.328;15.014;2022-11-20T07:27:05;98478.94;;;-5.58;94.69
75895;BME280;64573;50.328;15.014;2022-11-20T07:29:30;98472.00;;;-5.44;93.43
75895;BME280;64573;50.328;15.014;2022-11-20T07:31:56;98475.28;;;-5.41;94.11
75895;BME280;64573;50.328;15.014;2022-11-20T07:34:22;98469.69;;;-5.49;93.28
75895;BME280;64573;50.328;15.014;2022-11-20T07:36:47;98464.16;;;-5.44;93.87
75895;BME280;64573;50.328;15.014;2022-11-20T07:39:13;98464.53;;;-5.36;93.27
75895;BME280;64573;50.328;15.014;2022-11-20T07:41:38;98456.50;;;-5.33;93.43
75895;BME280;64573;50.328;15.014;2022-11-20T07:44:04;98449.75;;;-5.23;93.95
75895;BME280;64573;50.328;15.014;2022-11-20T07:46:29;98459.47;;;-5.11;93.81
75895;BME280;64573;50.328;15.014;2022-11-20T07:48:55;98456.16;;;-5.00;93.65
75895;BME280;64573;50.328;15.014;2022-11-20T07:51:20;98448.16;;;-5.11;92.82
75895;BME280;64573;50.328;15.014;2022-11-20T07:53:45;98456.47;;;-5.05;92.83
75895;BME280;64573;50.328;15.014;2022-11-20T07:56:11;98456.09;;;-4.98;93.12
75895;BME280;64573;50.328;15.014;2022-11-20T07:58:39;98465.97;;;-4.89;93.23
75895;BME280;64573;50.328;15.014;2022-11-20T08:01:06;98460.84;;;-4.91;92.67
75895;BME280;64573;50.328;15.014;2022-11-20T08:03:32;98463.44;;;-4.91;93.41
75895;BME280;64573;50.328;15.014;2022-11-20T08:05:59;98466.97;;;-4.78;93.16
75895;BME280;64573;50.328;15.014;2022-11-20T08:08:28;98458.69;;;-4.72;93.56
75895;BME280;64573;50.328;15.014;2022-11-20T08:10:54;98465.72;;;-4.72;93.23
75895;BME280;64573;50.328;15.014;2022-11-20T08:13:39;98479.72;;;-4.73;93.79
75895;BME280;64573;50.328;15.014;2022-11-20T08:16:23;98477.84;;;-4.71;93.51
75895;BME280;64573;50.328;15.014;2022-11-20T08:18:48;98473.47;;;-4.70;93.79
75895;BME280;64573;50.328;15.014;2022-11-20T08:21:14;98482.63;;;-4.63;94.26
75895;BME280;64573;50.328;15.014;2022-11-20T08:23:40;98480.72;;;-4.61;93.73
75895;BME280;64573;50.328;15.014;2022-11-20T08:28:34;98476.06;;;-4.56;93.49
75895;BME280;64573;50.328;15.014;2022-11-20T08:31:02;98480.19;;;-4.66;93.10
75895;BME280;64573;50.328;15.014;2022-11-20T08:33:28;98476.22;;;-4.59;92.79
75895;BME280;64573;50.328;15.014;2022-11-20T08:35:53;98479.28;;;-4.53;93.10
75895;BME280;64573;50.328;15.014;2022-11-20T08:38:18;98471.69;;;-4.43;92.92
75895;BME280;64573;50.328;15.014;2022-11-20T08:40:44;98474.13;;;-4.40;92.90
75895;BME280;64573;50.328;15.014;2022-11-20T08:43:29;98461.97;;;-4.41;92.60
75895;BME280;64573;50.328;15.014;2022-11-20T08:45:56;98472.72;;;-4.46;91.99
75895;BME280;64573;50.328;15.014;2022-11-20T08:48:22;98460.69;;;-4.35;92.86
75895;BME280;64573;50.328;15.014;2022-11-20T08:50:47;98462.47;;;-4.36;92.54
75895;BME280;64573;50.328;15.014;2022-11-20T08:53:12;98455.22;;;-4.18;92.07
75895;BME280;64573;50.328;15.014;2022-11-20T08:55:37;98464.44;;;-4.12;92.68
75895;BME280;64573;50.328;15.014;2022-11-20T08:58:04;98470.84;;;-4.04;92.57
75895;BME280;64573;50.328;15.014;2022-11-20T09:00:30;98463.91;;;-4.18;92.04
75895;BME280;64573;50.328;15.014;2022-11-20T09:02:57;98462.41;;;-4.22;91.75
75895;BME280;64573;50.328;15.014;2022-11-20T09:05:23;98459.94;;;-4.10;91.28
75895;BME280;64573;50.328;15.014;2022-11-20T09:07:49;98440.84;;;-4.25;90.50
75895;BME280;64573;50.328;15.014;2022-11-20T09:10:14;98443.97;;;-4.33;90.24
75895;BME280;64573;50.328;15.014;2022-11-20T09:12:40;98449.53;;;-4.25;90.50
75895;BME280;64573;50.328;15.014;2022-11-20T09:15:05;98446.75;;;-3.96;91.17
75895;BME280;64573;50.328;15.014;2022-11-20T09:17:31;98445.25;;;-4.13;90.41
75895;BME280;64573;50.328;15.014;2022-11-20T09:19:56;98439.63;;;-3.94;91.45
75895;BME280;64573;50.328;15.014;2022-11-20T09:22:21;98435.00;;;-4.03;90.50
75895;BME280;64573;50.328;15.014;2022-11-20T09:24:49;98446.44;;;-4.04;90.33
75895;BME280;64573;50.328;15.014;2022-11-20T09:27:15;98442.75;;;-4.02;91.17
75895;BME280;64573;50.328;15.014;2022-11-20T09:29:45;98438.25;;;-4.12;90.23
75895;BME280;64573;50.328;15.014;2022-11-20T09:32:14;98431.56;;;-3.91;90.96
75895;BME280;64573;50.328;15.014;2022-11-20T09:34:39;98435.97;;;-3.79;89.91
75895;BME280;64573;50.328;15.014;2022-11-20T09:37:04;98437.00;;;-3.43;90.58
75895;BME280;64573;50.328;15.014;2022-11-20T09:39:30;98428.25;;;-3.18;90.57
75895;BME280;64573;50.328;15.014;2022-11-20T09:45:18;98422.53;;;-3.12;87.83
75895;BME280;64573;50.328;15.014;2022-11-20T09:48:12;98411.00;;;-2.97;87.66
75895;BME280;64573;50.328;15.014;2022-11-20T09:50:37;98413.41;;;-2.83;87.11
75895;BME280;64573;50.328;15.014;2022-11-20T09:53:16;98403.44;;;-3.01;86.52
75895;BME280;64573;50.328;15.014;2022-11-20T09:55:46;98392.28;;;-3.29;88.08
75895;BME280;64573;50.328;15.014;2022-11-20T10:01:21;98402.75;;;-3.16;87.87
75895;BME280;64573;50.328;15.014;2022-11-20T10:04:12;98396.28;;;-2.99;87.87
75895;BME280;64573;50.328;15.014;2022-11-20T10:07:08;98399.94;;;-2.89;87.88
75895;BME280;64573;50.328;15.014;2022-11-20T10:09:40;98390.75;;;-2.84;88.38
75895;BME280;64573;50.328;15.014;2022-11-20T10:12:23;98385.34;;;-2.69;87.95
75895;BME280;64573;50.328;15.014;2022-11-20T10:18:05;98384.31;;;-2.20;87.51
75895;BME280;64573;50.328;15.014;2022-11-20T10:20:46;98372.31;;;-1.89;87.37
75895;BME280;64573;50.328;15.014;2022-11-20T10:29:05;98376.25;;;-1.39;84.24
75895;BME280;64573;50.328;15.014;2022-11-20T10:31:52;98381.28;;;-1.36;85.59
75895;BME280;64573;50.328;15.014;2022-11-20T10:34:33;98375.06;;;-1.69;85.48
75895;BME280;64573;50.328;15.014;2022-11-20T10:37:02;98374.00;;;-1.77;86.30
75895;BME280;64573;50.328;15.014;2022-11-20T10:42:37;98364.44;;;-2.01;86.62
75895;BME280;64573;50.328;15.014;2022-11-20T10:45:31;98361.34;;;-1.95;86.18
75895;BME280;64573;50.328;15.014;2022-11-20T10:50:34;98365.38;;;-1.68;86.94
75895;BME280;64573;50.328;15.014;2022-11-20T10:53:31;98362.75;;;-1.90;86.75
75895;BME280;64573;50.328;15.014;2022-11-20T10:56:05;98357.88;;;-1.95;87.02
75895;BME280;64573;50.328;15.014;2022-11-20T10:58:41;98355.81;;;-1.91;85.76
75895;BME280;64573;50.328;15.014;2022-11-20T11:03:41;98352.09;;;-2.23;85.62
75895;BME280;64573;50.328;15.014;2022-11-20T11:06:15;98354.13;;;-2.15;86.74
75895;BME280;64573;50.328;15.014;2022-11-20T11:08:42;98354.00;;;-2.13;87.14
75895;BME280;64573;50.328;15.014;2022-11-20T11:11:21;98351.25;;;-2.12;87.57
75895;BME280;64573;50.328;15.014;2022-11-20T11:13:47;98343.13;;;-2.20;87.36
75895;BME280;64573;50.328;15.014;2022-11-20T11:18:48;98350.22;;;-2.09;86.69
75895;BME280;64573;50.328;15.014;2022-11-20T11:21:21;98341.81;;;-2.03;86.70
75895;BME280;64573;50.328;15.014;2022-11-20T11:23:48;98331.94;;;-2.00;87.77
75895;BME280;64573;50.328;15.014;2022-11-20T11:26:22;98335.53;;;-1.78;87.11
75895;BME280;64573;50.328;15.014;2022-11-20T11:31:25;98341.50;;;-1.65;85.64
75895;BME280;64573;50.328;15.014;2022-11-20T11:33:51;98337.53;;;-2.04;86.88
75895;BME280;64573;50.328;15.014;2022-11-20T11:36:20;98337.38;;;-2.25;88.23
75895;BME280;64573;50.328;15.014;2022-11-20T11:38:51;98339.78;;;-2.22;89.02
75895;BME280;64573;50.328;15.014;2022-11-20T11:41:24;98350.25;;;-2.33;89.06
75895;BME280;64573;50.328;15.014;2022-11-20T11:43:55;98342.00;;;-2.40;88.96
75895;BME280;64573;50.328;15.014;2022-11-20T11:54:20;98331.19;;;-2.24;87.89
75895;BME280;64573;50.328;15.014;2022-11-20T11:56:44;98320.56;;;-2.23;87.96
75895;BME280;64573;50.328;15.014;2022-11-20T11:59:57;98324.13;;;-2.35;87.62
75895;BME280;64573;50.328;15.014;2022-11-20T12:02:22;98316.84;;;-2.31;88.28
75895;BME280;64573;50.328;15.014;2022-11-20T12:04:46;98307.19;;;-2.31;88.67
75895;BME280;64573;50.328;15.014;2022-11-20T12:07:20;98298.13;;;-1.93;88.24
75895;BME280;64573;50.328;15.014;2022-11-20T12:09:52;98293.97;;;-1.73;86.85
75895;BME280;64573;50.328;15.014;2022-11-20T12:12:32;98295.41;;;-1.80;86.96
75895;BME280;64573;50.328;15.014;2022-11-20T12:15:00;98282.44;;;-1.50;86.27
75895;BME280;64573;50.328;15.014;2022-11-20T12:17:27;98288.19;;;-1.67;86.33
75895;BME280;64573;50.328;15.014;2022-11-20T12:19:52;98283.53;;;-1.75;85.53
75895;BME280;64573;50.328;15.014;2022-11-20T12:40:07;98302.66;;;-2.29;89.82
75895;BME280;64573;50.328;15.014;2022-11-20T13:08:40;98251.50;;;-1.69;87.18
75895;BME280;64573;50.328;15.014;2022-11-20T13:26:36;98237.81;;;-2.06;87.68
75895;BME280;64573;50.328;15.014;2022-11-20T13:29:09;98241.19;;;-2.15;88.32
75895;BME280;64573;50.328;15.014;2022-11-20T13:31:36;98243.19;;;-2.07;88.33
75895;BME280;64573;50.328;15.014;2022-11-20T13:34:05;98243.53;;;-2.12;88.56
75895;BME280;64573;50.328;15.014;2022-11-20T13:36:32;98247.25;;;-2.14;87.97
75895;BME280;64573;50.328;15.014;2022-11-20T13:39:00;98241.06;;;-2.02;88.56
75895;BME280;64573;50.328;15.014;2022-11-20T13:46:43;98239.97;;;-2.00;90.19
75895;BME280;64573;50.328;15.014;2022-11-20T13:51:46;98237.47;;;-2.01;88.91
75895;BME280;64573;50.328;15.014;2022-11-20T14:02:01;98232.34;;;-2.14;89.45
75895;BME280;64573;50.328;15.014;2022-11-20T15:21:45;98214.66;;;-2.57;92.67
75895;BME280;64573;50.328;15.014;2022-11-20T15:24:10;98205.22;;;-2.59;92.46
75895;BME280;64573;50.328;15.014;2022-11-20T15:34:18;98213.09;;;-2.59;93.22
75895;BME280;64573;50.328;15.014;2022-11-20T15:36:43;98201.78;;;-2.60;92.49
75895;BME280;64573;50.328;15.014;2022-11-20T15:46:47;98211.19;;;-2.57;92.84
75895;BME280;64573;50.328;15.014;2022-11-20T15:59:24;98204.84;;;-2.55;93.38
75895;BME280;64573;50.328;15.014;2022-11-20T16:12:09;98192.94;;;-2.59;93.81
75895;BME280;64573;50.328;15.014;2022-11-20T16:14:37;98203.56;;;-2.60;92.67
75895;BME280;64573;50.328;15.014;2022-11-20T16:19:34;98204.50;;;-2.61;92.61
75895;BME280;64573;50.328;15.014;2022-11-20T16:21:59;98199.25;;;-2.61;93.43
75895;BME280;64573;50.328;15.014;2022-11-20T16:24:28;98201.88;;;-2.61;93.51
75895;BME280;64573;50.328;15.014;2022-11-20T16:26:54;98205.94;;;-2.57;94.34
75895;BME280;64573;50.328;15.014;2022-11-20T16:29:19;98192.69;;;-2.56;93.79
75895;BME280;64573;50.328;15.014;2022-11-20T16:31:45;98191.03;;;-2.57;93.76
75895;BME280;64573;50.328;15.014;2022-11-20T16:34:10;98192.81;;;-2.57;93.81
75895;BME280;64573;50.328;15.014;2022-11-20T16:36:39;98197.94;;;-2.56;93.99
75895;BME280;64573;50.328;15.014;2022-11-20T16:39:05;98194.34;;;-2.55;93.93
75895;BME280;64573;50.328;15.014;2022-11-20T16:41:32;98188.16;;;-2.54;94.02
75895;BME280;64573;50.328;15.014;2022-11-20T16:43:59;98176.94;;;-2.56;93.74
75895;BME280;64573;50.328;15.014;2022-11-20T16:46:28;98194.13;;;-2.52;93.97